createdAt,value
2019-03-12T00:01:56.012Z,101403.33
2019-03-12T00:04:24.926Z,101409.38
2019-03-12T00:06:53.847Z,101404.59
2019-03-12T00:09:22.702Z,101411.48
2019-03-12T00:11:52.197Z,101411.63
2019-03-12T00:14:21.772Z,101414.48
2019-03-12T00:16:50.381Z,101415.40
2019-03-12T00:19:19.003Z,101428.33
2019-03-12T00:21:47.732Z,101433.13
2019-03-12T00:24:16.366Z,101429.44
2019-03-12T00:26:45.017Z,101438.80
2019-03-12T00:29:13.670Z,101447.03
2019-03-12T00:31:42.292Z,101453.47
2019-03-12T00:34:10.960Z,101456.66
2019-03-12T00:36:39.595Z,101458.83
2019-03-12T00:39:08.295Z,101455.06
2019-03-12T00:41:36.935Z,101447.73
2019-03-12T00:44:05.650Z,101445.41
2019-03-12T00:46:34.297Z,101449.20
2019-03-12T00:49:02.922Z,101445.41
2019-03-12T00:51:31.630Z,101450.02
2019-03-12T00:54:00.251Z,101446.73
2019-03-12T00:56:28.891Z,101433.76
2019-03-12T00:58:57.600Z,101432.00
2019-03-12T01:01:26.239Z,101423.96
2019-03-12T01:03:54.872Z,101413.23
2019-03-12T01:06:23.510Z,101420.98
2019-03-12T01:08:52.164Z,101426.84
2019-03-12T01:11:20.787Z,101424.73
2019-03-12T01:13:49.418Z,101437.91
2019-03-12T01:16:18.050Z,101440.63
2019-03-12T01:18:46.699Z,101450.68
2019-03-12T01:21:15.537Z,101455.51
2019-03-12T01:23:44.181Z,101459.03
2019-03-12T01:26:12.961Z,101458.47
2019-03-12T01:28:41.617Z,101454.75
2019-03-12T01:31:10.279Z,101446.63
2019-03-12T01:33:38.895Z,101449.19
2019-03-12T01:36:07.622Z,101449.61
2019-03-12T01:38:36.251Z,101447.36
2019-03-12T01:41:04.952Z,101442.75
2019-03-12T01:43:33.567Z,101448.19
2019-03-12T01:46:02.202Z,101461.05
2019-03-12T01:48:30.895Z,101464.02
2019-03-12T01:50:59.569Z,101464.87
2019-03-12T01:53:28.223Z,101476.09
2019-03-12T01:55:56.920Z,101477.51
2019-03-12T01:58:25.621Z,101472.78
2019-03-12T02:00:54.260Z,101470.11
2019-03-12T02:03:22.950Z,101475.75
2019-03-12T02:05:51.563Z,101465.04
2019-03-12T02:08:20.215Z,101463.27
2019-03-12T02:10:48.834Z,101455.53
2019-03-12T02:13:17.449Z,101452.80
2019-03-12T02:15:46.153Z,101450.27
2019-03-12T02:18:14.780Z,101460.21
2019-03-12T02:20:43.407Z,101453.05
2019-03-12T02:23:12.043Z,101455.11
2019-03-12T02:25:40.645Z,101457.63
2019-03-12T02:28:09.363Z,101466.86
2019-03-12T02:30:38.000Z,101458.02
2019-03-12T02:33:06.767Z,101458.20
2019-03-12T02:35:35.424Z,101458.59
2019-03-12T02:38:04.055Z,101460.77
2019-03-12T02:40:32.747Z,101448.66
2019-03-12T02:43:01.392Z,101451.73
2019-03-12T02:45:30.025Z,101443.25
2019-03-12T02:47:58.736Z,101440.09
2019-03-12T02:50:27.414Z,101444.58
2019-03-12T02:52:56.187Z,101448.09
2019-03-12T02:55:24.763Z,101440.89
2019-03-12T02:57:53.367Z,101439.22
2019-03-12T03:00:22.269Z,101440.48
2019-03-12T03:02:50.957Z,101433.91
2019-03-12T03:05:19.990Z,101452.45
2019-03-12T03:07:53.029Z,101451.54
2019-03-12T03:10:21.786Z,101442.94
2019-03-12T03:12:50.527Z,101447.10
2019-03-12T03:15:21.331Z,101437.36
2019-03-12T03:17:50.069Z,101449.17
2019-03-12T03:20:18.666Z,101447.14
2019-03-12T03:22:47.249Z,101451.49
2019-03-12T03:25:16.344Z,101459.84
2019-03-12T03:27:45.046Z,101464.45
2019-03-12T03:30:16.772Z,101462.83
2019-03-12T03:32:45.407Z,101459.77
2019-03-12T03:35:14.217Z,101455.00
2019-03-12T03:37:42.954Z,101460.95
2019-03-12T03:40:14.753Z,101462.35
2019-03-12T03:42:43.374Z,101458.01
2019-03-12T03:45:12.161Z,101451.70
2019-03-12T03:47:40.840Z,101453.77
2019-03-12T03:50:09.934Z,101452.84
2019-03-12T03:52:38.682Z,101450.57
2019-03-12T03:55:09.239Z,101449.80
2019-03-12T03:57:37.915Z,101449.94
2019-03-12T04:00:08.106Z,101440.13
2019-03-12T04:02:36.725Z,101438.30
2019-03-12T04:05:05.684Z,101439.28
2019-03-12T04:07:34.329Z,101426.29
2019-03-12T04:10:03.018Z,101426.42
2019-03-12T04:12:31.655Z,101429.52
2019-03-12T04:15:00.572Z,101430.53
2019-03-12T04:17:29.473Z,101426.34
2019-03-12T04:19:58.157Z,101424.25
2019-03-12T04:22:26.864Z,101425.46
2019-03-12T04:24:55.455Z,101435.32
2019-03-12T04:27:24.184Z,101434.60
2019-03-12T04:29:52.904Z,101442.52
2019-03-12T04:32:21.628Z,101438.17
2019-03-12T04:34:50.291Z,101433.15
2019-03-12T04:37:19.018Z,101439.89
2019-03-12T04:39:47.739Z,101436.42
2019-03-12T04:42:16.358Z,101430.44
2019-03-12T04:44:45.019Z,101423.92
2019-03-12T04:47:13.676Z,101422.73
2019-03-12T04:49:42.313Z,101410.97
2019-03-12T04:52:10.973Z,101407.63
2019-03-12T04:54:39.679Z,101401.97
2019-03-12T04:57:08.311Z,101407.16
2019-03-12T04:59:36.970Z,101408.84
2019-03-12T05:02:05.678Z,101410.15
2019-03-12T05:04:34.309Z,101400.44
2019-03-12T05:07:03.013Z,101398.12
2019-03-12T05:09:31.757Z,101397.31
2019-03-12T05:12:00.363Z,101400.41
2019-03-12T05:14:30.927Z,101394.54
2019-03-12T05:17:10.535Z,101400.78
2019-03-12T05:19:41.990Z,101391.44
2019-03-12T05:22:10.671Z,101396.47
2019-03-12T05:24:39.311Z,101392.63
2019-03-12T05:27:08.043Z,101395.97
2019-03-12T05:29:36.678Z,101391.28
2019-03-12T05:32:05.312Z,101389.02
2019-03-12T05:34:34.017Z,101380.00
2019-03-12T05:37:02.653Z,101382.54
2019-03-12T05:39:31.373Z,101380.99
2019-03-12T05:41:59.997Z,101378.56
2019-03-12T05:44:28.664Z,101381.09
2019-03-12T05:46:57.350Z,101381.33
2019-03-12T05:49:25.963Z,101386.72
2019-03-12T05:51:54.609Z,101383.40
2019-03-12T05:54:23.243Z,101380.99
2019-03-12T05:56:51.857Z,101380.25
2019-03-12T05:59:20.491Z,101379.17
2019-03-12T06:01:49.145Z,101378.11
2019-03-12T06:04:17.764Z,101380.02
2019-03-12T06:06:46.378Z,101383.26
2019-03-12T06:09:15.066Z,101379.44
2019-03-12T06:11:43.721Z,101378.59
2019-03-12T06:14:12.312Z,101386.97
2019-03-12T06:16:41.030Z,101391.31
2019-03-12T06:19:09.641Z,101390.94
2019-03-12T06:21:38.317Z,101385.16
2019-03-12T06:24:06.969Z,101389.75
2019-03-12T06:26:35.621Z,101385.07
2019-03-12T06:29:04.315Z,101387.09
2019-03-12T06:31:50.447Z,101388.27
2019-03-12T06:34:38.074Z,101378.93
2019-03-12T06:37:25.714Z,101386.50
2019-03-12T06:40:22.359Z,101388.55
2019-03-12T06:43:06.283Z,101383.59
2019-03-12T06:45:44.299Z,101379.64
2019-03-12T06:48:30.513Z,101377.25
2019-03-12T06:51:14.891Z,101372.55
2019-03-12T06:54:04.725Z,101365.50
2019-03-12T06:56:46.002Z,101356.09
2019-03-12T06:59:28.102Z,101346.11
2019-03-12T07:02:04.563Z,101344.90
2019-03-12T07:04:50.794Z,101335.42
2019-03-12T07:07:45.981Z,101326.92
2019-03-12T07:10:30.614Z,101321.77
2019-03-12T07:13:14.363Z,101331.25
2019-03-12T07:16:00.344Z,101331.84
2019-03-12T07:18:37.949Z,101333.39
2019-03-12T07:21:28.708Z,101336.52
2019-03-12T07:24:08.711Z,101327.36
2019-03-12T07:27:05.294Z,101324.58
2019-03-12T07:29:51.594Z,101321.94
2019-03-12T07:32:39.231Z,101318.77
2019-03-12T07:35:26.949Z,101314.67
2019-03-12T07:38:04.402Z,101312.56
2019-03-12T07:40:52.619Z,101305.31
2019-03-12T07:43:35.321Z,101298.45
2019-03-12T07:46:15.697Z,101294.64
2019-03-12T07:48:50.057Z,101280.66
2019-03-12T07:51:37.672Z,101276.73
2019-03-12T07:54:22.226Z,101275.77
2019-03-12T07:57:13.227Z,101270.09
2019-03-12T08:00:15.960Z,101263.54
2019-03-12T08:03:21.835Z,101266.59
2019-03-12T08:06:10.000Z,101257.89
2019-03-12T08:08:56.427Z,101256.52
2019-03-12T08:11:30.327Z,101254.56
2019-03-12T08:14:27.159Z,101245.30
2019-03-12T08:17:03.113Z,101241.14
2019-03-12T08:19:49.348Z,101238.52
2019-03-12T08:22:33.480Z,101239.52
2019-03-12T08:25:18.693Z,101228.59
2019-03-12T08:28:02.267Z,101221.50
2019-03-12T08:30:41.920Z,101214.24
2019-03-12T08:33:28.106Z,101207.77
2019-03-12T08:36:18.416Z,101202.60
2019-03-12T08:38:56.906Z,101197.22
2019-03-12T08:41:50.357Z,101191.98
2019-03-12T08:44:29.332Z,101185.44
2019-03-12T08:47:26.114Z,101179.06
2019-03-12T08:50:19.693Z,101172.61
2019-03-12T08:52:53.735Z,101158.16
2019-03-12T08:55:40.225Z,101155.04
2019-03-12T08:58:22.263Z,101146.75
2019-03-12T09:00:57.085Z,101135.65
2019-03-12T09:03:37.214Z,101129.70
2019-03-12T09:06:12.474Z,101128.08
2019-03-12T09:08:47.786Z,101126.94
2019-03-12T09:11:28.091Z,101123.37
2019-03-12T09:14:27.688Z,101124.81
2019-03-12T09:17:12.056Z,101122.20
2019-03-12T09:20:01.091Z,101106.93
2019-03-12T09:22:57.537Z,101102.63
2019-03-12T09:25:43.973Z,101094.03
2019-03-12T09:28:28.507Z,101091.58
2019-03-12T09:31:14.657Z,101087.49
2019-03-12T09:33:55.537Z,101081.22
2019-03-12T09:36:41.767Z,101077.66
2019-03-12T09:39:21.806Z,101071.88
2019-03-12T09:42:13.851Z,101068.79
2019-03-12T09:45:04.249Z,101056.98
2019-03-12T09:47:58.559Z,101050.29
2019-03-12T09:50:34.874Z,101050.95
2019-03-12T09:53:21.372Z,101029.10
2019-03-12T09:56:09.226Z,101024.14
2019-03-12T09:58:55.705Z,101011.32
2019-03-12T10:01:35.434Z,101007.74
2019-03-12T10:04:25.975Z,101003.81
2019-03-12T10:07:02.218Z,100995.83
2019-03-12T10:09:48.796Z,100988.85
2019-03-12T10:12:24.857Z,100984.50
2019-03-12T10:14:59.276Z,100983.17
2019-03-12T10:17:37.357Z,100993.69
2019-03-12T10:20:42.115Z,100984.84
2019-03-12T10:23:32.523Z,100975.84
2019-03-12T10:26:08.710Z,100957.52
2019-03-12T10:29:02.840Z,100956.14
2019-03-12T10:31:59.327Z,100945.02
2019-03-12T10:34:40.127Z,100943.77
2019-03-12T10:37:25.090Z,100942.73
2019-03-12T10:40:03.822Z,100943.59
2019-03-12T10:42:39.955Z,100934.52
2019-03-12T10:45:27.579Z,100934.18
2019-03-12T10:47:56.609Z,100925.34
2019-03-12T10:50:25.339Z,100916.86
2019-03-12T10:52:54.019Z,100905.02
2019-03-12T10:55:22.725Z,100907.33
2019-03-12T10:57:51.439Z,100900.92
2019-03-12T11:00:20.244Z,100902.70
2019-03-12T11:02:49.291Z,100894.92
2019-03-12T11:05:18.718Z,100897.39
2019-03-12T11:07:47.402Z,100882.03
2019-03-12T11:10:16.202Z,100875.28
2019-03-12T11:12:45.001Z,100871.32
2019-03-12T11:15:13.710Z,100861.38
2019-03-12T11:17:49.643Z,100854.66
2019-03-12T11:20:13.897Z,100844.89
2019-03-12T11:22:42.514Z,100836.06
2019-03-12T11:25:11.220Z,100821.72
2019-03-12T11:27:39.911Z,100826.17
2019-03-12T11:30:11.027Z,100817.06
2019-03-12T11:32:40.035Z,100817.64
2019-03-12T11:35:09.015Z,100809.63
2019-03-12T11:37:37.808Z,100802.95
2019-03-12T11:40:08.939Z,100789.55
2019-03-12T11:42:37.566Z,100791.56
2019-03-12T11:45:13.655Z,100778.80
2019-03-12T11:47:36.939Z,100772.45
2019-03-12T11:50:07.076Z,100762.86
2019-03-12T11:52:35.709Z,100769.55
2019-03-12T11:55:04.772Z,100755.11
2019-03-12T11:57:33.413Z,100741.05
2019-03-12T12:00:02.187Z,100733.17
2019-03-12T12:02:31.011Z,100727.98
2019-03-12T12:04:59.658Z,100723.66
2019-03-12T12:07:28.282Z,100723.59
2019-03-12T12:09:56.969Z,100725.75
2019-03-12T12:12:25.857Z,100717.05
2019-03-12T12:14:54.503Z,100702.39
2019-03-12T12:17:23.132Z,100701.49
2019-03-12T12:19:51.782Z,100690.56
2019-03-12T12:22:20.418Z,100679.75
2019-03-12T12:24:49.082Z,100677.75
2019-03-12T12:27:17.689Z,100664.41
2019-03-12T12:29:46.296Z,100652.14
2019-03-12T12:32:15.001Z,100644.88
2019-03-12T12:34:43.625Z,100646.52
2019-03-12T12:37:13.833Z,100643.16
2019-03-12T12:39:42.668Z,100630.55
2019-03-12T12:42:11.316Z,100620.23
2019-03-12T12:44:39.961Z,100608.97
2019-03-12T12:47:08.597Z,100612.27
2019-03-12T12:49:37.220Z,100594.27
2019-03-12T12:52:05.913Z,100581.59
2019-03-12T12:54:34.554Z,100578.22
2019-03-12T12:57:03.200Z,100567.11
2019-03-12T12:59:31.905Z,100560.27
2019-03-12T13:02:00.624Z,100558.92
2019-03-12T13:04:29.330Z,100557.36
2019-03-12T13:06:58.043Z,100559.30
2019-03-12T13:09:26.769Z,100554.32
2019-03-12T13:11:55.458Z,100561.00
2019-03-12T13:14:24.103Z,100556.55
2019-03-12T13:16:52.741Z,100534.59
2019-03-12T13:19:21.353Z,100537.30
2019-03-12T13:21:50.039Z,100533.77
2019-03-12T13:24:18.941Z,100529.82
2019-03-12T13:26:47.501Z,100521.66
2019-03-12T13:29:16.267Z,100507.66
2019-03-12T13:31:44.910Z,100493.85
2019-03-12T13:34:13.608Z,100493.16
2019-03-12T13:36:42.319Z,100488.00
2019-03-12T13:39:11.154Z,100475.08
2019-03-12T13:41:40.221Z,100464.50
2019-03-12T13:44:09.044Z,100460.23
2019-03-12T13:46:37.913Z,100451.54
2019-03-12T13:49:06.573Z,100446.73
2019-03-12T13:51:35.300Z,100444.16
2019-03-12T13:54:03.940Z,100442.44
2019-03-12T13:56:32.558Z,100432.99
2019-03-12T13:59:01.201Z,100417.63
2019-03-12T14:01:29.902Z,100410.13
2019-03-12T14:04:10.058Z,100409.78
2019-03-12T14:06:28.917Z,100399.23
2019-03-12T14:08:57.733Z,100393.13
2019-03-12T14:11:26.455Z,100394.38
2019-03-12T14:13:55.192Z,100391.04
2019-03-12T14:16:24.022Z,100384.10
2019-03-12T14:18:52.642Z,100379.02
2019-03-12T14:21:21.273Z,100368.47
2019-03-12T14:24:01.462Z,100355.72
2019-03-12T14:26:30.139Z,100363.18
2019-03-12T14:28:58.836Z,100352.13
2019-03-12T14:31:27.547Z,100340.18
2019-03-12T14:33:56.370Z,100337.59
2019-03-12T14:36:25.079Z,100330.06
2019-03-12T14:38:53.819Z,100330.91
2019-03-12T14:41:22.489Z,100321.91
2019-03-12T14:43:51.259Z,100306.08
2019-03-12T14:46:20.041Z,100292.91
2019-03-12T14:48:57.202Z,100293.29
2019-03-12T14:52:17.843Z,100286.27
2019-03-12T14:54:46.648Z,100275.69
2019-03-12T14:57:15.354Z,100264.66
2019-03-12T14:59:44.071Z,100257.82
2019-03-12T15:02:12.791Z,100252.91
2019-03-12T15:04:41.471Z,100243.02
2019-03-12T15:07:10.197Z,100234.09
2019-03-12T15:09:38.867Z,100224.03
2019-03-12T15:12:07.615Z,100220.25
2019-03-12T15:14:36.302Z,100198.94
2019-03-12T15:17:05.082Z,100173.94
2019-03-12T15:19:33.790Z,100171.68
2019-03-12T15:22:02.519Z,100156.05
2019-03-12T15:24:31.160Z,100142.73
2019-03-12T15:26:59.792Z,100139.16
2019-03-12T15:29:28.450Z,100127.52
2019-03-12T15:32:04.112Z,100128.91
2019-03-12T15:34:27.633Z,100123.31
2019-03-12T15:36:56.238Z,100123.30
2019-03-12T15:39:24.877Z,100104.78
2019-03-12T15:41:53.500Z,100096.45
2019-03-12T15:44:22.137Z,100091.94
2019-03-12T15:46:50.759Z,100086.91
2019-03-12T15:49:19.408Z,100083.58
2019-03-12T15:51:48.043Z,100073.09
2019-03-12T15:54:16.661Z,100067.63
2019-03-12T15:56:45.452Z,100059.48
2019-03-12T15:59:14.187Z,100057.83
2019-03-12T16:01:42.823Z,100050.59
2019-03-12T16:04:11.468Z,100051.83
2019-03-12T16:06:40.179Z,100037.22
2019-03-12T16:09:08.945Z,100027.20
2019-03-12T16:11:37.637Z,100026.36
2019-03-12T16:14:06.529Z,100013.90
2019-03-12T16:16:35.155Z,100019.16
2019-03-12T16:19:03.770Z,100008.77
2019-03-12T16:21:32.391Z,100003.78
2019-03-12T16:24:01.023Z,99985.02
2019-03-12T16:26:29.753Z,99984.55
2019-03-12T16:28:58.396Z,99966.03
2019-03-12T16:31:27.110Z,99963.23
2019-03-12T16:33:55.822Z,99958.52
2019-03-12T16:36:24.626Z,99946.22
2019-03-12T16:38:53.290Z,99948.67
2019-03-12T16:41:21.933Z,99936.83
2019-03-12T16:43:50.544Z,99938.73
2019-03-12T16:46:19.172Z,99926.58
2019-03-12T16:48:47.775Z,99924.20
2019-03-12T16:51:16.576Z,99920.45
2019-03-12T16:53:45.305Z,99909.94
2019-03-12T16:56:13.965Z,99894.19
2019-03-12T16:58:42.683Z,99892.06
2019-03-12T17:01:11.397Z,99884.95
2019-03-12T17:03:41.196Z,99876.20
2019-03-12T17:06:09.811Z,99869.02
2019-03-12T17:08:39.080Z,99865.81
2019-03-12T17:11:07.743Z,99849.16
2019-03-12T17:13:36.497Z,99848.23
2019-03-12T17:16:05.210Z,99832.62
2019-03-12T17:18:34.227Z,99827.33
2019-03-12T17:21:03.307Z,99814.31
2019-03-12T17:23:37.784Z,99813.45
2019-03-12T17:26:06.734Z,99806.28
2019-03-12T17:28:36.025Z,99800.41
2019-03-12T17:31:07.391Z,99798.98
2019-03-12T17:33:39.589Z,99789.42
2019-03-12T17:36:10.684Z,99782.78
2019-03-12T17:38:46.705Z,99780.50
2019-03-12T17:41:10.537Z,99779.89
2019-03-12T17:43:39.445Z,99781.64
2019-03-12T17:46:08.478Z,99778.06
2019-03-12T17:48:39.354Z,99767.60
2019-03-12T17:51:08.059Z,99772.32
2019-03-12T17:53:40.423Z,99764.22
2019-03-12T17:56:09.112Z,99753.81
2019-03-12T17:58:37.753Z,99751.58
2019-03-12T18:01:06.379Z,99744.69
2019-03-12T18:03:35.045Z,99733.72
2019-03-12T18:06:03.842Z,99726.94
2019-03-12T18:08:32.478Z,99722.02
2019-03-12T18:11:01.156Z,99714.30
2019-03-12T18:13:29.774Z,99718.00
2019-03-12T18:15:58.419Z,99724.36
2019-03-12T18:18:27.078Z,99710.72
2019-03-12T18:20:55.717Z,99707.83
2019-03-12T18:23:24.427Z,99707.11
2019-03-12T18:25:53.138Z,99691.71
2019-03-12T18:28:21.861Z,99685.77
2019-03-12T18:30:50.587Z,99676.33
2019-03-12T18:33:19.343Z,99667.09
2019-03-12T18:35:48.002Z,99655.58
2019-03-12T18:38:16.703Z,99653.84
2019-03-12T18:40:45.353Z,99642.56
2019-03-12T18:43:15.000Z,99643.17
2019-03-12T18:45:43.952Z,99641.63
2019-03-12T18:48:12.574Z,99627.98
2019-03-12T18:50:41.348Z,99626.66
2019-03-12T18:53:09.969Z,99620.48
2019-03-12T18:56:06.803Z,99608.48
2019-03-12T18:58:38.446Z,99608.88
2019-03-12T19:01:15.098Z,99601.48
2019-03-12T19:03:47.438Z,99593.47
2019-03-12T19:06:16.384Z,99590.30
2019-03-12T19:08:48.049Z,99571.90
2019-03-12T19:11:16.522Z,99575.33
2019-03-12T19:13:46.146Z,99558.48
2019-03-12T19:16:14.973Z,99560.72
2019-03-12T19:18:44.585Z,99549.03
2019-03-12T19:21:13.523Z,99537.41
2019-03-12T19:23:42.244Z,99537.50
2019-03-12T19:26:14.290Z,99539.03
2019-03-12T19:28:44.459Z,99538.72
2019-03-12T19:31:38.053Z,99527.61
2019-03-12T19:34:14.240Z,99522.27
2019-03-12T19:36:54.440Z,99512.81
2019-03-12T19:39:23.260Z,99500.08
2019-03-12T19:41:53.330Z,99484.66
2019-03-12T19:44:26.164Z,99478.19
2019-03-12T19:46:55.069Z,99471.70
2019-03-12T19:49:23.928Z,99456.61
2019-03-12T19:51:52.701Z,99452.80
2019-03-12T19:54:21.516Z,99443.60
2019-03-12T19:56:50.517Z,99438.04
2019-03-12T19:59:19.530Z,99431.68
2019-03-12T20:01:49.834Z,99424.48
2019-03-12T20:04:18.576Z,99431.08
2019-03-12T20:07:06.903Z,99426.20
2019-03-12T20:10:16.270Z,99419.28
2019-03-12T20:13:24.435Z,99412.00
2019-03-12T20:16:28.197Z,99398.05
2019-03-12T20:19:33.304Z,99392.70
2019-03-12T20:22:38.645Z,99373.14
2019-03-12T20:25:44.488Z,99369.60
2019-03-12T20:29:00.596Z,99366.75
2019-03-12T20:31:59.435Z,99354.73
2019-03-12T20:35:08.577Z,99352.79
2019-03-12T20:38:17.828Z,99346.53
2019-03-12T20:41:24.449Z,99339.80
2019-03-12T20:44:29.564Z,99334.55
2019-03-12T20:47:38.882Z,99331.51
2019-03-12T20:50:42.910Z,99319.12
2019-03-12T20:53:50.452Z,99311.16
2019-03-12T20:56:56.072Z,99304.79
2019-03-12T21:00:01.974Z,99297.80
2019-03-12T21:03:06.953Z,99293.05
2019-03-12T21:06:25.799Z,99287.51
2019-03-12T21:09:46.308Z,99290.23
2019-03-12T21:13:07.815Z,99276.66
2019-03-12T21:16:05.683Z,99277.04
2019-03-12T21:19:01.424Z,99264.19
2019-03-12T21:22:13.650Z,99266.78
2019-03-12T21:25:25.924Z,99271.16
2019-03-12T21:28:34.780Z,99272.27
2019-03-12T21:31:03.768Z,99272.41
2019-03-12T21:33:32.836Z,99274.96
2019-03-12T21:36:02.053Z,99262.77
2019-03-12T21:38:35.912Z,99247.94
2019-03-12T21:41:05.323Z,99245.25
2019-03-12T21:43:34.395Z,99238.72
2019-03-12T21:46:03.218Z,99240.80
2019-03-12T21:48:32.397Z,99234.66
2019-03-12T21:51:03.115Z,99236.59
2019-03-12T21:53:31.911Z,99236.05
2019-03-12T21:56:01.856Z,99243.02
2019-03-12T21:58:30.657Z,99246.75
2019-03-12T22:01:00.303Z,99245.38
2019-03-12T22:03:29.252Z,99248.52
2019-03-12T22:05:58.702Z,99240.05
2019-03-12T22:08:28.657Z,99233.45
2019-03-12T22:10:57.829Z,99228.56
2019-03-12T22:13:26.512Z,99214.91
2019-03-12T22:15:55.608Z,99210.66
2019-03-12T22:18:24.317Z,99207.19
2019-03-12T22:20:53.680Z,99213.93
2019-03-12T22:23:25.569Z,99206.80
2019-03-12T22:25:56.328Z,99202.27
2019-03-12T22:28:28.801Z,99202.50
2019-03-12T22:31:03.446Z,99198.58
2019-03-12T22:33:32.419Z,99202.88
2019-03-12T22:36:01.404Z,99203.31
2019-03-12T22:38:33.249Z,99203.17
2019-03-12T22:41:05.796Z,99201.75
2019-03-12T22:43:34.929Z,99211.34
2019-03-12T22:46:04.072Z,99216.31
2019-03-12T22:48:32.843Z,99219.42
2019-03-12T22:51:04.916Z,99214.02
2019-03-12T22:53:51.455Z,99213.48
2019-03-12T22:56:20.188Z,99212.54
2019-03-12T22:58:48.810Z,99210.45
2019-03-12T23:01:17.892Z,99219.14
2019-03-12T23:03:46.994Z,99212.08
2019-03-12T23:06:15.869Z,99224.94
2019-03-12T23:08:44.731Z,99236.97
2019-03-12T23:11:13.688Z,99238.16
2019-03-12T23:13:42.520Z,99251.38
2019-03-12T23:16:11.536Z,99261.23
2019-03-12T23:18:40.535Z,99262.94
2019-03-12T23:21:09.464Z,99265.17
2019-03-12T23:23:38.576Z,99262.42
2019-03-12T23:26:07.933Z,99263.00
2019-03-12T23:28:36.978Z,99278.07
2019-03-12T23:31:06.172Z,99297.73
2019-03-12T23:33:35.572Z,99320.00
2019-03-12T23:36:04.519Z,99328.98
2019-03-12T23:38:33.331Z,99334.88
2019-03-12T23:41:02.575Z,99334.00
2019-03-12T23:43:31.756Z,99351.02
2019-03-12T23:46:00.777Z,99383.67
2019-03-12T23:48:29.910Z,99441.41
2019-03-12T23:51:07.448Z,99431.63
2019-03-12T23:53:36.513Z,99432.92
2019-03-12T23:56:05.540Z,99452.70
2019-03-12T23:58:38.441Z,99478.03
